Decoded METAR Reports


Created by using MetarWeather

Station Name Location Elevation Time Temperature Dew Point RH Heat Index Wind Visibility Pressure Sky Condition Weather Remarks METAR
Alexandroupolis  40.85N 25.92E  3m  26/03/2015 19:20:00  13.0C  12.0C  94%  N/A  4 km/h, Variable  6000m  1014.9 mb  Scattered clouds at 460m
Broken clouds at 760m
 
Light Rain
 
   LGAL 261720Z VRB02KT 6000 -RA SCT015 BKN025 13/12 Q1015 
Andravida (Civ/A  37.92N 21.27E  12m  26/03/2015 19:20:00  15.0C  12.0C  82%  N/A  11 km/h, NW (320 degrees)  > 10000m  1004.1 mb  Scattered clouds at 910m
Scattered clouds at 2400m
Broken clouds at 4900m
 
      LGAD 261720Z 32006KT 9999 SCT030 SCT080 BKN160 15/12 Q1004 
Araxos (Civ/Afb)  38.17N 21.42E  15m  26/03/2015 19:20:00  15.0C  13.0C  88%  N/A  22 km/h, NE (50 degrees)  > 10000m  1004.1 mb  Scattered clouds at 1200m
Scattered clouds at 2700m
Broken clouds at 5800m
 
      LGRX 261720Z 05012KT 9999 SCT040 SCT090 BKN190 15/13 Q1004 
Athens/Elef-Ven  37.93N 23.95E  94m  26/03/2015 19:20:00  13.0C  11.0C  88%  N/A  17 km/h, E (90 degrees)  4000m  1010.2 mb  Few clouds at 460m
Broken clouds at 760m
Overcast at 2100m
 
Light Rain
Rain
 
   LGAV 261720Z 09009KT 4000 -RA FEW015 BKN025 OVC070 13/11 Q1010 TEMPO 2000 RA 
Chios Airport  38.32N 26.12E  4m  26/03/2015 18:50:00  14.0C  11.0C  82%  N/A  6 km/h, Variable  > 10000m  1012.9 mb  Few clouds at 550m
Broken clouds at 760m
Overcast at 2400m
 
Light Rain
 
   LGHI 261650Z VRB03KT 9999 -RA FEW018 BKN025 OVC080 14/11 Q1013 
Elefsis (Hel-Afb  38.07N 23.55E  31m  26/03/2015 19:20:00  13.0C  13.0C  100%  N/A  Calm  4000m  1010.2 mb  Scattered clouds at 460m
Broken clouds at 610m
Overcast at 2100m
 
Rain
Mist
 
   LGEL 261720Z 00000KT 4000 RA BR SCT015 BKN020 OVC070 13/13 Q1010 
Ioannis Kapodist  39.60N 19.92E  2m  26/03/2015 19:20:00  16.0C  14.0C  88%  N/A  Calm  > 10000m  1005.1 mb  Few clouds at 610m
Broken clouds at 1100m
Overcast at 2400m
 
Light Rain
 
   LGKR 261720Z 00000KT 9999 -RA FEW020 BKN035 OVC080 16/14 Q1005 NOSIG 
Iraklion (Civ/Af  35.32N 25.17E  39m  26/03/2015 19:20:00  13.0C  11.0C  88%  N/A  7 km/h, SSW (200 degrees)  > 10000m  1008.1 mb  Scattered clouds at 610m
Broken clouds at 2400m
 
      LGIR 261720Z 20004KT 9999 SCT020 BKN080 13/11 Q1008 NOSIG 
Kalamata (Hel-Af  37.07N 22.02E  8m  26/03/2015 19:20:00  15.0C  14.0C  94%  N/A  7 km/h, NE (40 degrees)  5000m  1005.1 mb  Few clouds at 150m
Few cumulus clouds at 610m
Scattered clouds at 1100m
Broken clouds at 2400m
 
Light Rain
 
   LGKL 261720Z 04004KT 5000 -RA FEW005 FEW020TCU SCT035 BKN080 15/14 Q1005 
Karpathos  35.42N 27.15E  20m  26/03/2015 19:20:00  16.0C  12.0C  77%  N/A  44 km/h, E (80 degrees)  > 10000m  1013.9 mb  Broken clouds at 610m
Overcast at 2400m
 
      LGKP 261720Z 08024KT 9999 BKN020 OVC080 16/12 Q1014 
Kavala/Chrisoupo  40.92N 24.62E  5m  26/03/2015 19:20:00  11.0C  9.0C  87%  N/A  11 km/h, E (80 degrees)  8000m  1013.9 mb  Few clouds at 610m
Scattered clouds at 1100m
Overcast at 2400m
 
Light Rain
 
   LGKV 261720Z 08006KT 8000 -RA FEW020 SCT035 OVC080 11/09 Q1014 
Kefallinia  38.12N 20.50E  18m  26/03/2015 18:50:00  16.0C  15.0C  94%  N/A  20 km/h, E (100 degrees)  > 10000m  1004.1 mb  Few clouds at 300m
Scattered clouds at 760m
Broken clouds at 2400m
 
      LGKF 261650Z 10011KT 9999 FEW010 SCT025 BKN080 16/15 Q1004 
Kos Airport  36.80N 27.08E  130m  26/03/2015 19:20:00  13.0C  12.0C  94%  N/A  46 km/h, SE (140 degrees)  3000m  1013.9 mb  Broken clouds at 240m
Broken clouds at 610m
Overcast at 2400m
 
Rain
Mist
 
   LGKO 261720Z 14025KT 3000 RA BR BKN008 BKN020 OVC080 13/12 Q1014 
Kozani (Civ/Army  40.28N 21.85E  630m  26/03/2015 18:50:00  8.0C  7.0C  93%  N/A  Calm  2000m  1011.9 mb  Scattered clouds at 120m
Broken clouds at 610m
Overcast at 2100m
 
Light Drizzle
Mist
 
   LGKZ 261650Z 00000KT 2000 -DZ BR SCT004 BKN020 OVC070 08/07 Q1012 
Limnos Island Ar  39.92N 25.23E  5m  26/03/2015 19:20:00  13.0C  12.0C  94%  N/A  19 km/h, E (100 degrees)  4000m  1013.9 mb  Scattered clouds at 300m
Few cumulus clouds at 490m
Broken clouds at 610m
Overcast at 2100m
 
Light Rain
 
   LGLM 261720Z 10010KT 4000 -RA SCT010 FEW016TCU BKN020 OVC070 13/12 Q1014 
Mikonos Island  37.43N 25.35E  120m  26/03/2015 18:50:00  14.0C  13.0C  94%  N/A  37 km/h, 61 km/h gusts, SE (130 degrees)  5000m  1011.9 mb  Scattered clouds at 300m
Few cumulus clouds at 550m
Scattered clouds at 610m
Overcast at 2100m
 
Rain
Mist
 
   LGMK 261650Z 13020G33KT 5000 RA BR SCT010 FEW018TCU SCT020 OVC070 14/13 Q1012 
Mitilini  39.05N 26.60E  17m  26/03/2015 19:20:00  13.0C  11.0C  88%  N/A  4 km/h, Variable  6000m  1014.9 mb  Scattered cumulus clouds at 610m
Broken clouds at 760m
Overcast at 2400m
 
Light Rain
 
   LGMT 261720Z VRB02KT 6000 -RA SCT020TCU BKN025 OVC080 13/11 Q1015 
Paros  37.00N 25.07E  36m  26/03/2015 16:50:00  15.0C  12.0C  82%  N/A  46 km/h, 69 km/h gusts, ESE (110 degrees)    1010.8 mb     Light Rain
 
   LGPA 261450Z AUTO 11025G37KT //// -RA ////// 15/12 Q1011 RE// 
Preveza/Aktion  38.62N 20.77E  4m  26/03/2015 19:20:00  13.0C  12.0C  94%  N/A  20 km/h, E (80 degrees)  7000m  1007.1 mb  Few clouds at 610m
Broken clouds at 760m
Overcast at 2400m
 
Heavy Rain
 
   LGPZ 261720Z 08011KT 7000 +RA FEW020 BKN025 OVC080 13/12 Q1007 
Rhodes/Diagoras  36.40N 28.08E  5m  26/03/2015 19:20:00  15.0C  12.0C  82%  N/A  11 km/h, SSE (150 degrees)  9000m  1015.9 mb  Few clouds at 460m
Scattered clouds at 610m
 
Light Rain
 
   LGRP 261720Z 15006KT 9000 -RA FEW015 SCT020 15/12 Q1016 NOSIG 
Samos Airport  37.68N 26.92E  6m  26/03/2015 16:50:00  15.0C  11.0C  77%  N/A  11 km/h, SE (130 degrees)  > 10000m  1014.9 mb  Few clouds at 910m
Broken clouds at 2700m
Overcast at 5200m
 
Light Rain
 
   LGSM 261450Z 13006KT 9999 -RA FEW030 BKN090 OVC170 15/11 Q1015 
Santorini Island  36.40N 25.48E  40m  26/03/2015 19:20:00  15.0C  12.0C  82%  N/A  44 km/h, 63 km/h gusts, SE (140 degrees)  4000m  1010.8 mb  Few clouds at 300m
Broken clouds at 610m
Overcast at 2400m
 
Light Rain
Widespread Dust
 
   LGSR 261720Z 14024G34KT 4000 -RA DU FEW010 BKN020 OVC080 15/12 Q1011 
Skiathos Island  39.18N 23.50E  15m  25/03/2015 13:50:00  11.0C  9.0C  87%  N/A    7000m  1016.9 mb  Few clouds at 460m
Broken clouds at 760m
Overcast at 2400m
 
Light Rain
 
   LGSK 251150Z /////KT 7000 -RA FEW015 BKN025 OVC080 11/09 Q1017 
Souda/Khania (Af  35.47N 24.12E  150m  26/03/2015 19:20:00  16.0C  15.0C  94%  N/A  28 km/h, NE (50 degrees)  9000m  1008.1 mb  Few Cumulonimbus clouds at 550m
Scattered clouds at 760m
Broken clouds at 2100m
 
Light Rain with Thunderstorm
 
   LGSA 261720Z 05015KT 9000 -TSRA FEW018CB SCT025 BKN070 16/15 Q1008 
Syros  37.42N 24.95E  72m  26/03/2015 18:50:00  14.0C  14.0C  100%  N/A  37 km/h, 56 km/h gusts, SE (130 degrees)  6000m  1010.8 mb  Scattered clouds at 300m
Few cumulus clouds at 550m
Broken clouds at 610m
Overcast at 2400m
 
Rain
 
   LGSO 261650Z 13020G30KT 6000 RA SCT010 FEW018TCU BKN020 OVC080 14/14 Q1011 
Thessaloniki/Mik  40.52N 22.97E  7m  26/03/2015 19:20:00  11.0C  10.0C  94%  N/A  4 km/h, Variable  1200m  1011.9 mb  Broken clouds at 120m
Overcast at 760m
 
Rain
Mist
 
   LGTS 261720Z VRB02KT 1200 R16/2000 R34/2000 RA BR BKN004 OVC025 11/10 Q1012 NOSIG 
Zakinthos Airpor  37.75N 20.87E  3m  26/03/2015 18:50:00  16.0C  14.0C  88%  N/A  6 km/h, WNW (290 degrees)  > 10000m  1005.1 mb  Few clouds at 430m
Few cumulus clouds at 550m
Broken clouds at 610m
Overcast at 2400m
 
      LGZA 261650Z 29003KT 9999 FEW014 FEW018TCU BKN020 OVC080 16/14 Q1005